Elmira Corning Regional Airport Elmira,Corning US
ICAO: KELM
IATA: ELM
Category: Medium
Scheduled Services: Yes

Elevation: 954 ft
TransAlt. 18000 ft.

Airport Communications:
APP/DEP:119.45
ATIS:125.475
CLNC DEL:121.9
CTAF:122.4
GND/CLNC DEL:121.9
BUFFALO RDO:122.2
TWR:121.1
UNICOM:122.95

KELM Zoom In..

Runways:

(A) RW 05 length 2017 ft width 150 ft
---- / hdg 62

(B) RW 06 length 8001 ft width 150 ft
ILS 109.10 / hdg 62

(C) RW 10 length 5404 ft width 150 ft
---- / hdg 101

(D) RW 23 length 2017 ft width 150 ft
---- / hdg 242

(E) RW 24 length 8001 ft width 150 ft
ILS 109.10 / hdg 242

(F) RW 28 length 5404 ft width 150 ft
---- / hdg 281

Location; KELM
Day. 25 / Time. 11.53 Zulu
* Altimeter: 29.89
* Temperature: 10° c. 50°f.
* Wind from: 040° Speed 05 kn.
Dewpoint: 10° c.
Visibility: 3 Statute Miles.
Clouds: Overcast 900 ft.
Conditions: Mist.

KELM 251153Z 04005KT 3SM BR OVC009 10/10 A2989 RMK AO2 CIG 004V013 SLP123 60003 70005 T01000100 10106 20100 56018


Wind From 040°
Speed 05 kn.

  YouTube Music Video
 
jpsmedia.com for Web Design  worldairports.se 2018   terms of use